sensor_id;sensor_type;location;lat;lon;timestamp;temperature;humidity
63047;DHT22;62025;39.238;9.126;2024-02-26T00:00:04;13.10;65.50
63047;DHT22;62025;39.238;9.126;2024-02-26T00:02:36;13.00;65.60
63047;DHT22;62025;39.238;9.126;2024-02-26T00:05:06;13.00;65.90
63047;DHT22;62025;39.238;9.126;2024-02-26T00:07:34;13.10;65.80
63047;DHT22;62025;39.238;9.126;2024-02-26T00:10:00;13.00;66.40
63047;DHT22;62025;39.238;9.126;2024-02-26T00:12:26;13.00;66.70
63047;DHT22;62025;39.238;9.126;2024-02-26T00:14:53;13.10;66.90
63047;DHT22;62025;39.238;9.126;2024-02-26T00:17:19;13.10;67.10
63047;DHT22;62025;39.238;9.126;2024-02-26T00:19:45;13.00;67.60
63047;DHT22;62025;39.238;9.126;2024-02-26T00:22:11;13.00;67.70
63047;DHT22;62025;39.238;9.126;2024-02-26T00:24:37;12.90;68.10
63047;DHT22;62025;39.238;9.126;2024-02-26T00:27:03;13.00;68.20
63047;DHT22;62025;39.238;9.126;2024-02-26T00:29:29;13.10;68.10
63047;DHT22;62025;39.238;9.126;2024-02-26T00:31:55;13.10;68.20
63047;DHT22;62025;39.238;9.126;2024-02-26T00:34:21;13.00;68.80
63047;DHT22;62025;39.238;9.126;2024-02-26T00:36:46;13.00;69.10
63047;DHT22;62025;39.238;9.126;2024-02-26T00:39:12;13.00;69.60
63047;DHT22;62025;39.238;9.126;2024-02-26T00:41:42;13.00;69.90
63047;DHT22;62025;39.238;9.126;2024-02-26T00:44:08;13.00;69.80
63047;DHT22;62025;39.238;9.126;2024-02-26T00:46:34;13.00;70.20
63047;DHT22;62025;39.238;9.126;2024-02-26T00:49:00;13.00;70.90
63047;DHT22;62025;39.238;9.126;2024-02-26T00:51:27;13.10;70.90
63047;DHT22;62025;39.238;9.126;2024-02-26T00:53:54;13.10;71.10
63047;DHT22;62025;39.238;9.126;2024-02-26T00:56:21;13.10;71.30
63047;DHT22;62025;39.238;9.126;2024-02-26T00:58:47;13.10;71.50
63047;DHT22;62025;39.238;9.126;2024-02-26T01:01:13;13.20;71.90
63047;DHT22;62025;39.238;9.126;2024-02-26T01:03:39;13.20;72.00
63047;DHT22;62025;39.238;9.126;2024-02-26T01:06:05;13.20;72.30
63047;DHT22;62025;39.238;9.126;2024-02-26T01:08:31;13.20;72.50
63047;DHT22;62025;39.238;9.126;2024-02-26T01:10:57;13.10;72.80
63047;DHT22;62025;39.238;9.126;2024-02-26T01:13:23;13.10;73.10
63047;DHT22;62025;39.238;9.126;2024-02-26T01:15:49;13.20;73.20
63047;DHT22;62025;39.238;9.126;2024-02-26T01:18:15;13.10;74.10
63047;DHT22;62025;39.238;9.126;2024-02-26T01:20:41;13.20;74.00
63047;DHT22;62025;39.238;9.126;2024-02-26T01:23:06;13.20;73.90
63047;DHT22;62025;39.238;9.126;2024-02-26T01:25:32;13.20;74.00
63047;DHT22;62025;39.238;9.126;2024-02-26T01:27:58;13.20;74.50
63047;DHT22;62025;39.238;9.126;2024-02-26T01:30:24;13.00;75.50
63047;DHT22;62025;39.238;9.126;2024-02-26T01:32:50;13.00;76.10
63047;DHT22;62025;39.238;9.126;2024-02-26T01:35:16;13.00;76.70
63047;DHT22;62025;39.238;9.126;2024-02-26T01:37:42;13.10;76.70
63047;DHT22;62025;39.238;9.126;2024-02-26T01:40:08;13.00;77.00
63047;DHT22;62025;39.238;9.126;2024-02-26T01:42:38;13.10;77.00
63047;DHT22;62025;39.238;9.126;2024-02-26T01:45:05;13.30;76.60
63047;DHT22;62025;39.238;9.126;2024-02-26T01:47:32;13.10;77.10
63047;DHT22;62025;39.238;9.126;2024-02-26T01:49:58;13.10;78.00
63047;DHT22;62025;39.238;9.126;2024-02-26T01:52:24;13.20;77.60
63047;DHT22;62025;39.238;9.126;2024-02-26T01:54:50;13.10;78.30
63047;DHT22;62025;39.238;9.126;2024-02-26T01:57:17;12.90;79.10
63047;DHT22;62025;39.238;9.126;2024-02-26T01:59:43;13.20;78.60
63047;DHT22;62025;39.238;9.126;2024-02-26T02:02:10;13.10;78.60
63047;DHT22;62025;39.238;9.126;2024-02-26T02:04:38;13.20;78.40
63047;DHT22;62025;39.238;9.126;2024-02-26T02:07:04;13.10;78.30
63047;DHT22;62025;39.238;9.126;2024-02-26T02:09:31;13.10;78.80
63047;DHT22;62025;39.238;9.126;2024-02-26T02:11:58;13.30;78.60
63047;DHT22;62025;39.238;9.126;2024-02-26T02:14:25;13.10;79.00
63047;DHT22;62025;39.238;9.126;2024-02-26T02:16:51;13.20;79.00
63047;DHT22;62025;39.238;9.126;2024-02-26T02:19:17;13.20;79.10
63047;DHT22;62025;39.238;9.126;2024-02-26T02:21:42;13.10;79.20
63047;DHT22;62025;39.238;9.126;2024-02-26T02:24:08;13.30;79.30
63047;DHT22;62025;39.238;9.126;2024-02-26T02:26:34;13.30;79.20
63047;DHT22;62025;39.238;9.126;2024-02-26T02:29:00;13.20;79.60
63047;DHT22;62025;39.238;9.126;2024-02-26T02:31:27;13.30;79.80
63047;DHT22;62025;39.238;9.126;2024-02-26T02:33:53;13.20;80.50
63047;DHT22;62025;39.238;9.126;2024-02-26T02:36:19;13.10;81.20
63047;DHT22;62025;39.238;9.126;2024-02-26T02:38:51;13.10;81.30
63047;DHT22;62025;39.238;9.126;2024-02-26T02:41:18;13.20;81.10
63047;DHT22;62025;39.238;9.126;2024-02-26T02:43:44;13.00;81.50
63047;DHT22;62025;39.238;9.126;2024-02-26T02:46:10;13.20;81.60
63047;DHT22;62025;39.238;9.126;2024-02-26T02:48:39;13.10;81.70
63047;DHT22;62025;39.238;9.126;2024-02-26T02:51:07;13.20;82.10
63047;DHT22;62025;39.238;9.126;2024-02-26T02:53:34;13.20;82.50
63047;DHT22;62025;39.238;9.126;2024-02-26T02:56:00;13.30;82.20
63047;DHT22;62025;39.238;9.126;2024-02-26T02:58:26;13.20;82.30
63047;DHT22;62025;39.238;9.126;2024-02-26T03:00:52;13.10;82.60
63047;DHT22;62025;39.238;9.126;2024-02-26T03:03:20;13.20;82.90
63047;DHT22;62025;39.238;9.126;2024-02-26T03:05:46;13.00;83.30
63047;DHT22;62025;39.238;9.126;2024-02-26T03:08:12;13.00;83.60
63047;DHT22;62025;39.238;9.126;2024-02-26T03:10:38;13.00;84.00
63047;DHT22;62025;39.238;9.126;2024-02-26T03:13:04;13.10;84.00
63047;DHT22;62025;39.238;9.126;2024-02-26T03:15:30;13.10;83.70
63047;DHT22;62025;39.238;9.126;2024-02-26T03:17:56;13.10;83.60
63047;DHT22;62025;39.238;9.126;2024-02-26T03:20:22;13.10;83.50
63047;DHT22;62025;39.238;9.126;2024-02-26T03:22:48;13.10;83.80
63047;DHT22;62025;39.238;9.126;2024-02-26T03:25:14;13.20;83.70
63047;DHT22;62025;39.238;9.126;2024-02-26T03:27:40;13.20;83.90
63047;DHT22;62025;39.238;9.126;2024-02-26T03:30:06;13.30;83.60
63047;DHT22;62025;39.238;9.126;2024-02-26T03:32:32;13.30;83.40
63047;DHT22;62025;39.238;9.126;2024-02-26T03:34:58;13.30;83.50
63047;DHT22;62025;39.238;9.126;2024-02-26T03:37:25;13.30;83.50
63047;DHT22;62025;39.238;9.126;2024-02-26T03:39:51;13.30;83.50
63047;DHT22;62025;39.238;9.126;2024-02-26T03:42:17;13.30;83.40
63047;DHT22;62025;39.238;9.126;2024-02-26T03:44:43;13.30;83.50
63047;DHT22;62025;39.238;9.126;2024-02-26T03:47:09;13.30;83.90
63047;DHT22;62025;39.238;9.126;2024-02-26T03:49:35;13.20;84.30
63047;DHT22;62025;39.238;9.126;2024-02-26T03:52:01;13.20;84.40
63047;DHT22;62025;39.238;9.126;2024-02-26T03:54:27;13.30;84.50
63047;DHT22;62025;39.238;9.126;2024-02-26T03:56:53;13.30;84.30
63047;DHT22;62025;39.238;9.126;2024-02-26T03:59:19;13.30;84.20
63047;DHT22;62025;39.238;9.126;2024-02-26T04:01:46;13.30;84.20
63047;DHT22;62025;39.238;9.126;2024-02-26T04:04:15;13.30;84.20
63047;DHT22;62025;39.238;9.126;2024-02-26T04:06:45;13.30;84.30
63047;DHT22;62025;39.238;9.126;2024-02-26T04:09:13;13.30;84.60
63047;DHT22;62025;39.238;9.126;2024-02-26T04:11:40;13.30;84.60
63047;DHT22;62025;39.238;9.126;2024-02-26T04:14:06;13.30;84.80
63047;DHT22;62025;39.238;9.126;2024-02-26T04:16:34;13.20;84.90
63047;DHT22;62025;39.238;9.126;2024-02-26T04:19:03;13.30;85.00
63047;DHT22;62025;39.238;9.126;2024-02-26T04:21:29;13.30;85.30
63047;DHT22;62025;39.238;9.126;2024-02-26T04:23:55;13.30;85.10
63047;DHT22;62025;39.238;9.126;2024-02-26T04:26:21;13.20;85.50
63047;DHT22;62025;39.238;9.126;2024-02-26T04:28:47;13.30;85.40
63047;DHT22;62025;39.238;9.126;2024-02-26T04:31:13;13.30;85.60
63047;DHT22;62025;39.238;9.126;2024-02-26T04:33:39;13.30;85.40
63047;DHT22;62025;39.238;9.126;2024-02-26T04:36:05;13.30;85.40
63047;DHT22;62025;39.238;9.126;2024-02-26T04:38:31;13.30;85.60
63047;DHT22;62025;39.238;9.126;2024-02-26T04:40:57;13.30;85.80
63047;DHT22;62025;39.238;9.126;2024-02-26T04:43:23;13.40;85.60
63047;DHT22;62025;39.238;9.126;2024-02-26T04:45:48;13.40;85.50
63047;DHT22;62025;39.238;9.126;2024-02-26T04:48:15;13.30;85.60
63047;DHT22;62025;39.238;9.126;2024-02-26T04:50:40;13.30;85.80
63047;DHT22;62025;39.238;9.126;2024-02-26T04:53:07;13.30;85.90
63047;DHT22;62025;39.238;9.126;2024-02-26T04:55:33;13.30;86.00
63047;DHT22;62025;39.238;9.126;2024-02-26T04:57:59;13.30;86.20
63047;DHT22;62025;39.238;9.126;2024-02-26T05:00:25;13.30;86.10
63047;DHT22;62025;39.238;9.126;2024-02-26T05:02:51;13.40;85.90
63047;DHT22;62025;39.238;9.126;2024-02-26T05:05:17;13.40;85.80
63047;DHT22;62025;39.238;9.126;2024-02-26T05:07:43;13.50;85.80
63047;DHT22;62025;39.238;9.126;2024-02-26T05:10:10;13.50;85.70
63047;DHT22;62025;39.238;9.126;2024-02-26T05:12:36;13.50;85.60
63047;DHT22;62025;39.238;9.126;2024-02-26T05:15:03;13.60;85.50
63047;DHT22;62025;39.238;9.126;2024-02-26T05:17:29;13.40;85.70
63047;DHT22;62025;39.238;9.126;2024-02-26T05:19:55;13.40;86.00
63047;DHT22;62025;39.238;9.126;2024-02-26T05:22:21;13.50;85.90
63047;DHT22;62025;39.238;9.126;2024-02-26T05:24:47;13.60;85.70
63047;DHT22;62025;39.238;9.126;2024-02-26T05:27:13;13.60;85.40
63047;DHT22;62025;39.238;9.126;2024-02-26T05:29:39;13.60;85.40
63047;DHT22;62025;39.238;9.126;2024-02-26T05:32:06;13.60;85.50
63047;DHT22;62025;39.238;9.126;2024-02-26T05:34:32;13.60;85.60
63047;DHT22;62025;39.238;9.126;2024-02-26T05:36:59;13.60;85.80
63047;DHT22;62025;39.238;9.126;2024-02-26T05:39:24;13.60;85.80
63047;DHT22;62025;39.238;9.126;2024-02-26T05:41:50;13.40;86.30
63047;DHT22;62025;39.238;9.126;2024-02-26T05:44:16;13.30;86.60
63047;DHT22;62025;39.238;9.126;2024-02-26T05:46:43;13.50;86.60
63047;DHT22;62025;39.238;9.126;2024-02-26T05:49:09;13.50;86.50
63047;DHT22;62025;39.238;9.126;2024-02-26T05:51:35;13.60;86.20
63047;DHT22;62025;39.238;9.126;2024-02-26T05:54:01;13.60;86.00
63047;DHT22;62025;39.238;9.126;2024-02-26T05:56:27;13.70;85.90
63047;DHT22;62025;39.238;9.126;2024-02-26T05:58:53;13.70;85.60
63047;DHT22;62025;39.238;9.126;2024-02-26T06:01:20;13.70;85.60
63047;DHT22;62025;39.238;9.126;2024-02-26T06:03:46;13.60;85.90
63047;DHT22;62025;39.238;9.126;2024-02-26T06:06:12;13.60;86.00
63047;DHT22;62025;39.238;9.126;2024-02-26T06:08:39;13.60;85.90
63047;DHT22;62025;39.238;9.126;2024-02-26T06:11:06;13.60;86.10
63047;DHT22;62025;39.238;9.126;2024-02-26T06:13:33;13.70;86.10
63047;DHT22;62025;39.238;9.126;2024-02-26T06:16:00;13.70;86.20
63047;DHT22;62025;39.238;9.126;2024-02-26T06:18:26;13.70;86.00
63047;DHT22;62025;39.238;9.126;2024-02-26T06:20:52;13.70;86.00
63047;DHT22;62025;39.238;9.126;2024-02-26T06:23:18;13.70;86.00
63047;DHT22;62025;39.238;9.126;2024-02-26T06:25:44;13.80;85.80
63047;DHT22;62025;39.238;9.126;2024-02-26T06:28:10;13.70;85.80
63047;DHT22;62025;39.238;9.126;2024-02-26T06:30:36;13.70;86.00
63047;DHT22;62025;39.238;9.126;2024-02-26T06:33:01;13.70;86.00
63047;DHT22;62025;39.238;9.126;2024-02-26T06:35:28;13.60;86.10
63047;DHT22;62025;39.238;9.126;2024-02-26T06:37:54;13.60;86.40
63047;DHT22;62025;39.238;9.126;2024-02-26T06:40:20;13.70;86.40
63047;DHT22;62025;39.238;9.126;2024-02-26T06:42:46;13.60;86.30
63047;DHT22;62025;39.238;9.126;2024-02-26T06:45:12;13.60;86.60
63047;DHT22;62025;39.238;9.126;2024-02-26T06:47:38;13.70;86.60
63047;DHT22;62025;39.238;9.126;2024-02-26T06:50:05;13.60;86.50
63047;DHT22;62025;39.238;9.126;2024-02-26T06:52:31;13.60;86.80
63047;DHT22;62025;39.238;9.126;2024-02-26T06:54:56;13.60;86.70
63047;DHT22;62025;39.238;9.126;2024-02-26T06:57:22;13.70;86.60
63047;DHT22;62025;39.238;9.126;2024-02-26T06:59:49;13.80;86.60
63047;DHT22;62025;39.238;9.126;2024-02-26T07:02:15;13.80;86.50
63047;DHT22;62025;39.238;9.126;2024-02-26T07:04:44;13.80;86.40
63047;DHT22;62025;39.238;9.126;2024-02-26T07:07:10;13.80;86.40
63047;DHT22;62025;39.238;9.126;2024-02-26T07:09:36;13.80;86.40
63047;DHT22;62025;39.238;9.126;2024-02-26T07:12:03;13.80;86.40
63047;DHT22;62025;39.238;9.126;2024-02-26T07:14:29;13.80;86.60
63047;DHT22;62025;39.238;9.126;2024-02-26T07:16:55;13.80;86.60
63047;DHT22;62025;39.238;9.126;2024-02-26T07:19:22;14.00;86.60
63047;DHT22;62025;39.238;9.126;2024-02-26T07:21:48;14.10;86.30
63047;DHT22;62025;39.238;9.126;2024-02-26T07:24:13;14.50;86.20
63047;DHT22;62025;39.238;9.126;2024-02-26T07:26:40;14.80;85.50
63047;DHT22;62025;39.238;9.126;2024-02-26T07:29:06;14.70;85.10
63047;DHT22;62025;39.238;9.126;2024-02-26T07:31:32;14.70;85.00
63047;DHT22;62025;39.238;9.126;2024-02-26T07:33:58;14.80;84.80
63047;DHT22;62025;39.238;9.126;2024-02-26T07:36:24;15.30;84.00
63047;DHT22;62025;39.238;9.126;2024-02-26T07:38:50;15.70;83.30
63047;DHT22;62025;39.238;9.126;2024-02-26T07:41:20;16.10;81.90
63047;DHT22;62025;39.238;9.126;2024-02-26T07:43:46;16.30;80.70
63047;DHT22;62025;39.238;9.126;2024-02-26T07:46:12;16.40;80.60
63047;DHT22;62025;39.238;9.126;2024-02-26T07:48:38;16.30;80.00
63047;DHT22;62025;39.238;9.126;2024-02-26T07:51:04;16.10;80.20
63047;DHT22;62025;39.238;9.126;2024-02-26T07:53:30;16.10;80.60
63047;DHT22;62025;39.238;9.126;2024-02-26T07:55:56;16.00;80.30
63047;DHT22;62025;39.238;9.126;2024-02-26T07:58:23;15.80;80.90
63047;DHT22;62025;39.238;9.126;2024-02-26T08:00:49;16.30;80.80
63047;DHT22;62025;39.238;9.126;2024-02-26T08:03:16;16.90;79.20
63047;DHT22;62025;39.238;9.126;2024-02-26T08:05:42;17.30;76.90
63047;DHT22;62025;39.238;9.126;2024-02-26T08:08:09;17.30;76.70
63047;DHT22;62025;39.238;9.126;2024-02-26T08:10:35;17.30;75.70
63047;DHT22;62025;39.238;9.126;2024-02-26T08:13:01;17.80;74.20
63047;DHT22;62025;39.238;9.126;2024-02-26T08:15:33;17.90;73.50
63047;DHT22;62025;39.238;9.126;2024-02-26T08:18:01;18.40;71.80
63047;DHT22;62025;39.238;9.126;2024-02-26T08:20:30;19.00;70.40
63047;DHT22;62025;39.238;9.126;2024-02-26T08:22:57;19.20;67.60
63047;DHT22;62025;39.238;9.126;2024-02-26T08:25:24;18.40;68.00
63047;DHT22;62025;39.238;9.126;2024-02-26T08:27:50;18.30;69.40
63047;DHT22;62025;39.238;9.126;2024-02-26T08:30:16;18.30;71.00
63047;DHT22;62025;39.238;9.126;2024-02-26T08:32:45;17.90;71.70
63047;DHT22;62025;39.238;9.126;2024-02-26T08:35:12;17.40;72.90
63047;DHT22;62025;39.238;9.126;2024-02-26T08:37:38;17.60;73.40
63047;DHT22;62025;39.238;9.126;2024-02-26T08:40:06;17.80;72.60
63047;DHT22;62025;39.238;9.126;2024-02-26T08:42:32;18.60;71.50
63047;DHT22;62025;39.238;9.126;2024-02-26T08:44:58;18.90;67.60
63047;DHT22;62025;39.238;9.126;2024-02-26T08:47:28;19.40;65.90
63047;DHT22;62025;39.238;9.126;2024-02-26T08:49:54;19.80;64.50
63047;DHT22;62025;39.238;9.126;2024-02-26T08:52:20;19.90;63.20
63047;DHT22;62025;39.238;9.126;2024-02-26T08:54:47;20.00;62.90
63047;DHT22;62025;39.238;9.126;2024-02-26T08:57:14;19.90;63.80
63047;DHT22;62025;39.238;9.126;2024-02-26T08:59:40;19.90;62.90
63047;DHT22;62025;39.238;9.126;2024-02-26T09:02:06;19.70;64.20
63047;DHT22;62025;39.238;9.126;2024-02-26T09:04:35;19.40;64.10
63047;DHT22;62025;39.238;9.126;2024-02-26T09:07:01;19.10;65.90
63047;DHT22;62025;39.238;9.126;2024-02-26T09:09:27;19.20;65.50
63047;DHT22;62025;39.238;9.126;2024-02-26T09:11:54;19.00;66.40
63047;DHT22;62025;39.238;9.126;2024-02-26T09:14:21;19.60;64.70
63047;DHT22;62025;39.238;9.126;2024-02-26T09:16:47;19.60;64.50
63047;DHT22;62025;39.238;9.126;2024-02-26T09:19:17;19.00;64.90
63047;DHT22;62025;39.238;9.126;2024-02-26T09:21:44;18.60;66.20
63047;DHT22;62025;39.238;9.126;2024-02-26T09:24:13;18.60;67.10
63047;DHT22;62025;39.238;9.126;2024-02-26T09:26:40;18.30;68.20
63047;DHT22;62025;39.238;9.126;2024-02-26T09:29:06;18.00;68.70
63047;DHT22;62025;39.238;9.126;2024-02-26T09:31:35;17.90;69.40
63047;DHT22;62025;39.238;9.126;2024-02-26T09:34:01;17.80;69.70
63047;DHT22;62025;39.238;9.126;2024-02-26T09:36:27;18.00;69.40
63047;DHT22;62025;39.238;9.126;2024-02-26T09:38:53;18.10;69.20
63047;DHT22;62025;39.238;9.126;2024-02-26T09:41:19;17.90;69.30
63047;DHT22;62025;39.238;9.126;2024-02-26T09:43:48;18.00;69.10
63047;DHT22;62025;39.238;9.126;2024-02-26T09:46:17;17.90;69.00
63047;DHT22;62025;39.238;9.126;2024-02-26T09:48:46;18.30;68.20
63047;DHT22;62025;39.238;9.126;2024-02-26T09:51:14;18.70;67.40
63047;DHT22;62025;39.238;9.126;2024-02-26T09:53:43;18.40;67.70
63047;DHT22;62025;39.238;9.126;2024-02-26T09:56:12;18.80;66.90
63047;DHT22;62025;39.238;9.126;2024-02-26T09:58:41;19.00;65.40
63047;DHT22;62025;39.238;9.126;2024-02-26T10:01:11;18.60;66.40
63047;DHT22;62025;39.238;9.126;2024-02-26T10:03:41;18.50;65.70
63047;DHT22;62025;39.238;9.126;2024-02-26T10:06:11;18.40;65.80
63047;DHT22;62025;39.238;9.126;2024-02-26T10:08:37;18.80;66.00
63047;DHT22;62025;39.238;9.126;2024-02-26T10:11:05;18.80;66.70
63047;DHT22;62025;39.238;9.126;2024-02-26T10:13:32;18.40;66.10
63047;DHT22;62025;39.238;9.126;2024-02-26T10:15:58;18.40;66.50
63047;DHT22;62025;39.238;9.126;2024-02-26T10:18:24;18.60;66.10
63047;DHT22;62025;39.238;9.126;2024-02-26T10:21:00;18.50;66.60
63047;DHT22;62025;39.238;9.126;2024-02-26T10:23:27;18.00;67.90
63047;DHT22;62025;39.238;9.126;2024-02-26T10:25:56;17.90;68.40
63047;DHT22;62025;39.238;9.126;2024-02-26T10:28:23;17.80;69.00
63047;DHT22;62025;39.238;9.126;2024-02-26T10:30:50;17.70;69.40
63047;DHT22;62025;39.238;9.126;2024-02-26T10:33:17;17.60;69.70
63047;DHT22;62025;39.238;9.126;2024-02-26T10:35:47;17.60;70.00
63047;DHT22;62025;39.238;9.126;2024-02-26T10:38:13;17.60;70.40
63047;DHT22;62025;39.238;9.126;2024-02-26T10:40:42;17.80;69.70
63047;DHT22;62025;39.238;9.126;2024-02-26T10:43:09;17.90;69.80
63047;DHT22;62025;39.238;9.126;2024-02-26T10:45:35;18.30;69.00
63047;DHT22;62025;39.238;9.126;2024-02-26T10:48:02;18.20;68.80
63047;DHT22;62025;39.238;9.126;2024-02-26T10:50:28;18.30;68.60
63047;DHT22;62025;39.238;9.126;2024-02-26T10:52:55;18.30;68.70
63047;DHT22;62025;39.238;9.126;2024-02-26T10:55:22;18.20;67.80
63047;DHT22;62025;39.238;9.126;2024-02-26T10:57:52;18.20;68.30
63047;DHT22;62025;39.238;9.126;2024-02-26T11:00:18;18.70;67.00
63047;DHT22;62025;39.238;9.126;2024-02-26T11:02:48;18.80;67.20
63047;DHT22;62025;39.238;9.126;2024-02-26T11:05:14;19.20;65.80
63047;DHT22;62025;39.238;9.126;2024-02-26T11:07:41;19.00;66.30
63047;DHT22;62025;39.238;9.126;2024-02-26T11:10:09;18.90;66.80
63047;DHT22;62025;39.238;9.126;2024-02-26T11:12:38;18.60;67.20
63047;DHT22;62025;39.238;9.126;2024-02-26T11:15:05;18.40;67.60
63047;DHT22;62025;39.238;9.126;2024-02-26T11:17:32;18.20;68.30
63047;DHT22;62025;39.238;9.126;2024-02-26T11:19:59;18.10;68.50
63047;DHT22;62025;39.238;9.126;2024-02-26T11:22:28;18.20;68.60
63047;DHT22;62025;39.238;9.126;2024-02-26T11:24:57;18.10;68.90
63047;DHT22;62025;39.238;9.126;2024-02-26T11:27:53;18.20;68.60
63047;DHT22;62025;39.238;9.126;2024-02-26T11:30:25;18.10;68.50
63047;DHT22;62025;39.238;9.126;2024-02-26T11:32:52;18.20;68.90
63047;DHT22;62025;39.238;9.126;2024-02-26T11:35:19;18.40;68.70
63047;DHT22;62025;39.238;9.126;2024-02-26T11:37:55;18.60;68.30
63047;DHT22;62025;39.238;9.126;2024-02-26T11:40:25;18.60;68.00
63047;DHT22;62025;39.238;9.126;2024-02-26T11:42:51;18.60;67.80
63047;DHT22;62025;39.238;9.126;2024-02-26T11:48:04;18.40;68.70
63047;DHT22;62025;39.238;9.126;2024-02-26T11:50:35;18.50;68.70
63047;DHT22;62025;39.238;9.126;2024-02-26T11:55:47;18.40;69.00
63047;DHT22;62025;39.238;9.126;2024-02-26T11:58:13;18.30;68.50
63047;DHT22;62025;39.238;9.126;2024-02-26T12:00:42;18.40;68.20
63047;DHT22;62025;39.238;9.126;2024-02-26T12:03:08;18.60;68.50
63047;DHT22;62025;39.238;9.126;2024-02-26T12:05:36;18.80;68.00
63047;DHT22;62025;39.238;9.126;2024-02-26T12:08:05;18.80;67.80
63047;DHT22;62025;39.238;9.126;2024-02-26T12:10:33;18.90;67.90
63047;DHT22;62025;39.238;9.126;2024-02-26T12:13:10;18.60;68.20
63047;DHT22;62025;39.238;9.126;2024-02-26T12:15:44;18.60;68.70
63047;DHT22;62025;39.238;9.126;2024-02-26T12:18:19;18.50;68.80
63047;DHT22;62025;39.238;9.126;2024-02-26T12:20:46;18.40;68.10
63047;DHT22;62025;39.238;9.126;2024-02-26T12:23:15;18.40;68.40
63047;DHT22;62025;39.238;9.126;2024-02-26T12:25:44;18.30;68.60
63047;DHT22;62025;39.238;9.126;2024-02-26T12:28:14;18.30;68.90
63047;DHT22;62025;39.238;9.126;2024-02-26T12:30:40;18.20;69.30
63047;DHT22;62025;39.238;9.126;2024-02-26T12:33:06;18.00;69.00
63047;DHT22;62025;39.238;9.126;2024-02-26T12:35:35;18.10;69.20
63047;DHT22;62025;39.238;9.126;2024-02-26T12:38:01;18.10;69.40
63047;DHT22;62025;39.238;9.126;2024-02-26T12:40:29;18.10;69.50
63047;DHT22;62025;39.238;9.126;2024-02-26T12:42:56;18.20;70.30
63047;DHT22;62025;39.238;9.126;2024-02-26T12:45:22;18.30;69.50
63047;DHT22;62025;39.238;9.126;2024-02-26T12:47:48;18.30;69.30
63047;DHT22;62025;39.238;9.126;2024-02-26T12:50:16;18.30;69.50
63047;DHT22;62025;39.238;9.126;2024-02-26T12:52:47;18.30;69.30
63047;DHT22;62025;39.238;9.126;2024-02-26T12:55:19;18.40;69.40
63047;DHT22;62025;39.238;9.126;2024-02-26T12:57:46;18.50;68.60
63047;DHT22;62025;39.238;9.126;2024-02-26T13:00:17;18.50;68.60
63047;DHT22;62025;39.238;9.126;2024-02-26T13:02:45;18.50;68.40
63047;DHT22;62025;39.238;9.126;2024-02-26T13:05:13;18.50;68.20
63047;DHT22;62025;39.238;9.126;2024-02-26T13:07:46;18.50;68.40
63047;DHT22;62025;39.238;9.126;2024-02-26T13:10:17;18.40;68.10
63047;DHT22;62025;39.238;9.126;2024-02-26T13:12:48;18.40;67.70
63047;DHT22;62025;39.238;9.126;2024-02-26T13:15:22;18.50;67.70
63047;DHT22;62025;39.238;9.126;2024-02-26T13:17:49;18.30;67.90
63047;DHT22;62025;39.238;9.126;2024-02-26T13:20:28;18.50;67.80
63047;DHT22;62025;39.238;9.126;2024-02-26T13:23:03;18.40;67.80
63047;DHT22;62025;39.238;9.126;2024-02-26T13:25:30;18.40;68.00
63047;DHT22;62025;39.238;9.126;2024-02-26T13:30:54;18.10;69.40
63047;DHT22;62025;39.238;9.126;2024-02-26T13:33:28;18.10;69.10
63047;DHT22;62025;39.238;9.126;2024-02-26T13:35:59;18.10;69.20
63047;DHT22;62025;39.238;9.126;2024-02-26T13:38:26;18.10;69.20
63047;DHT22;62025;39.238;9.126;2024-02-26T13:40:54;18.20;69.40
63047;DHT22;62025;39.238;9.126;2024-02-26T13:43:21;18.10;69.60
63047;DHT22;62025;39.238;9.126;2024-02-26T13:45:47;18.10;70.00
63047;DHT22;62025;39.238;9.126;2024-02-26T13:48:14;18.10;70.00
63047;DHT22;62025;39.238;9.126;2024-02-26T13:50:43;18.20;69.80
63047;DHT22;62025;39.238;9.126;2024-02-26T13:53:11;18.20;69.30
63047;DHT22;62025;39.238;9.126;2024-02-26T13:55:38;18.20;69.70
63047;DHT22;62025;39.238;9.126;2024-02-26T13:58:05;18.30;69.20
63047;DHT22;62025;39.238;9.126;2024-02-26T14:00:32;18.40;68.90
63047;DHT22;62025;39.238;9.126;2024-02-26T14:03:00;18.40;68.90
63047;DHT22;62025;39.238;9.126;2024-02-26T14:05:26;18.40;69.30
63047;DHT22;62025;39.238;9.126;2024-02-26T14:07:53;18.40;69.20
63047;DHT22;62025;39.238;9.126;2024-02-26T14:10:20;18.40;68.40
63047;DHT22;62025;39.238;9.126;2024-02-26T14:12:46;18.30;68.70
63047;DHT22;62025;39.238;9.126;2024-02-26T14:15:12;18.30;69.20
63047;DHT22;62025;39.238;9.126;2024-02-26T14:17:38;18.10;69.80
63047;DHT22;62025;39.238;9.126;2024-02-26T14:20:04;18.00;70.30
63047;DHT22;62025;39.238;9.126;2024-02-26T14:22:30;17.90;70.00
63047;DHT22;62025;39.238;9.126;2024-02-26T14:24:57;17.70;69.50
63047;DHT22;62025;39.238;9.126;2024-02-26T14:27:23;17.70;69.90
63047;DHT22;62025;39.238;9.126;2024-02-26T14:29:49;17.60;70.20
63047;DHT22;62025;39.238;9.126;2024-02-26T14:32:15;17.60;70.20
63047;DHT22;62025;39.238;9.126;2024-02-26T14:34:43;17.70;70.50
63047;DHT22;62025;39.238;9.126;2024-02-26T14:37:09;17.80;70.40
63047;DHT22;62025;39.238;9.126;2024-02-26T14:39:35;17.80;70.20
63047;DHT22;62025;39.238;9.126;2024-02-26T14:42:03;17.80;70.30
63047;DHT22;62025;39.238;9.126;2024-02-26T14:44:29;17.70;70.30
63047;DHT22;62025;39.238;9.126;2024-02-26T14:46:55;17.50;71.20
63047;DHT22;62025;39.238;9.126;2024-02-26T14:49:21;17.60;70.90
63047;DHT22;62025;39.238;9.126;2024-02-26T14:51:47;17.40;71.00
63047;DHT22;62025;39.238;9.126;2024-02-26T14:54:14;17.50;71.00
63047;DHT22;62025;39.238;9.126;2024-02-26T14:56:40;17.50;70.60
63047;DHT22;62025;39.238;9.126;2024-02-26T14:59:06;17.40;70.60
63047;DHT22;62025;39.238;9.126;2024-02-26T15:01:32;17.40;70.60
63047;DHT22;62025;39.238;9.126;2024-02-26T15:03:59;17.40;70.90
63047;DHT22;62025;39.238;9.126;2024-02-26T15:06:25;17.50;70.90
63047;DHT22;62025;39.238;9.126;2024-02-26T15:08:55;17.50;70.60
63047;DHT22;62025;39.238;9.126;2024-02-26T15:11:21;17.40;70.40
63047;DHT22;62025;39.238;9.126;2024-02-26T15:13:47;17.30;71.10
63047;DHT22;62025;39.238;9.126;2024-02-26T15:16:20;17.30;71.90
63047;DHT22;62025;39.238;9.126;2024-02-26T15:18:46;17.00;72.70
63047;DHT22;62025;39.238;9.126;2024-02-26T15:21:13;17.10;72.50
63047;DHT22;62025;39.238;9.126;2024-02-26T15:23:42;17.10;73.20
63047;DHT22;62025;39.238;9.126;2024-02-26T15:26:12;17.00;75.00
63047;DHT22;62025;39.238;9.126;2024-02-26T15:28:39;17.10;75.40
63047;DHT22;62025;39.238;9.126;2024-02-26T15:31:06;17.00;76.00
63047;DHT22;62025;39.238;9.126;2024-02-26T15:33:32;16.90;76.30
63047;DHT22;62025;39.238;9.126;2024-02-26T15:35:57;17.00;76.40